Time;durP1;ratioP1;P1;durP2;ratioP2;P2;SDS_P1;SDS_P2;PMS_P1;PMS_P2;Temp;Humidity;BMP_temperature;BMP_pressure;BME280_temperature;BME280_humidity;BME280_pressure;Samples;Min_cycle;Max_cycle;Signal;HPM_P1;HPM_P2
2022/01/26 10:30:00;;;;;;;5.15;4.85;;;;;;;;;;1408273;33;21791;-53
2022/01/26 10:30:53;;;;;;;5.75;5.40;;;;;;;;;;1617483;29;21992;-53
2022/01/26 10:31:45;;;;;;;6.38;5.20;;;;;;;;;;1613963;29;24243;-47
2022/01/26 10:32:38;;;;;;;5.13;4.82;;;;;;;;;;1607848;29;21811;-53
2022/01/26 10:33:31;;;;;;;5.07;4.75;;;;;;;;;;1599027;29;22950;-48
2022/01/26 10:34:24;;;;;;;5.45;5.15;;;;;;;;;;1612146;29;22014;-51
2022/01/26 10:35:17;;;;;;;5.43;5.13;;;;;;;;;;1614958;29;23030;-50
2022/01/26 10:36:10;;;;;;;4.95;4.65;;;;;;;;;;1615547;29;22032;-53
2022/01/26 10:37:06;;;;;;;5.18;4.63;;;;;;;;;;1600802;29;22203;-49
2022/01/26 10:37:59;;;;;;;4.53;4.32;;;;;;;;;;1614786;29;21690;-46
2022/01/26 10:38:59;;;;;;;8.00;5.13;;;;;;;;;;1612744;29;22166;-47
2022/01/26 10:39:53;;;;;;;;;;;;;;;;;;1610778;29;22624;-49
2022/01/26 10:40:46;;;;;;;5.97;5.57;;;;;;;;;;1613418;29;22937;-53
2022/01/26 10:41:42;;;;;;;5.45;5.15;;;;;;;;;;1618906;29;21847;-51
2022/01/26 10:42:36;;;;;;;5.78;5.38;;;;;;;;;;1614232;29;22661;-49
2022/01/26 10:43:31;;;;;;;5.30;5.00;;;;;;;;;;1587274;29;21716;-52
2022/01/26 10:44:28;;;;;;;5.53;5.22;;;;;;;;;;1616234;29;22158;-55
2022/01/26 10:45:56;;;;;;;5.30;5.00;;;;;;;;;;1624060;29;27836;-48
2022/01/26 10:46:49;;;;;;;5.07;4.78;;;;;;;;;;1618683;29;22483;-55
2022/01/26 10:47:47;;;;;;;5.70;5.22;;;;;;;;;;1613960;29;22484;-51
2022/01/26 10:48:42;;;;;;;5.75;4.97;;;;;;;;;;1622270;29;21668;-49
2022/01/26 10:50:06;;;;;;;5.60;5.30;;;;;;;;;;1614685;29;21813;-50
2022/01/26 10:52:30;;;;;;;5.32;5.03;;;;;;;;;;1608028;29;22985;-55
2022/01/26 10:53:32;;;;;;;5.18;4.88;;;;;;;;;;1604366;29;22825;-49
2022/01/26 10:54:36;;;;;;;5.45;5.07;;;;;;;;;;1594124;29;22006;-47
2022/01/26 10:55:28;;;;;;;5.15;4.85;;;;;;;;;;1599795;29;22851;-49
2022/01/26 10:56:21;;;;;;;4.80;4.50;;;;;;;;;;1613310;29;21782;-51
2022/01/26 10:57:15;;;;;;;5.38;5.07;;;;;;;;;;1626906;29;22018;-56
2022/01/26 10:58:08;;;;;;;5.00;4.70;;;;;;;;;;1621150;29;21723;-57
2022/01/26 10:59:02;;;;;;;4.50;4.30;;;;;;;;;;1621587;29;22951;-57
2022/01/26 10:59:54;;;;;;;4.85;4.55;;;;;;;;;;1613985;29;21746;-56
2022/01/26 11:00:48;;;;;;;5.13;4.72;;;;;;;;;;1617907;29;21987;-53
2022/01/26 11:01:42;;;;;;;6.18;4.55;;;;;;;;;;1619552;29;22753;-54
2022/01/26 11:02:34;;;;;;;5.30;5.00;;;;;;;;;;1606182;29;22790;-51
2022/01/26 11:03:28;;;;;;;4.30;4.10;;;;;;;;;;1601667;29;22074;-48
2022/01/26 11:04:21;;;;;;;4.45;4.15;;;;;;;;;;1614729;29;21913;-51
2022/01/26 11:05:13;;;;;;;4.05;3.85;;;;;;;;;;1599501;29;22814;-51
2022/01/26 11:06:08;;;;;;;4.63;4.32;;;;;;;;;;1604653;29;21669;-48
2022/01/26 11:07:05;;;;;;;5.07;4.15;;;;;;;;;;1605980;29;21913;-46
2022/01/26 11:07:59;;;;;;;4.60;4.38;;;;;;;;;;1612056;29;24069;-46
2022/01/26 11:08:53;;;;;;;5.18;4.78;;;;;;;;;;1604149;29;23133;-51
2022/01/26 11:09:47;;;;;;;5.07;4.78;;;;;;;;;;1607003;29;22317;-46
2022/01/26 11:10:42;;;;;;;4.78;4.45;;;;;;;;;;1603253;29;22234;-46
2022/01/26 11:11:34;;;;;;;4.57;4.38;;;;;;;;;;1599284;29;22428;-46
2022/01/26 11:12:30;;;;;;;4.32;4.13;;;;;;;;;;1608783;29;22374;-50
2022/01/26 11:13:30;;;;;;;4.75;4.47;;;;;;;;;;1595611;29;22689;-45
2022/01/26 11:14:23;;;;;;;4.30;4.10;;;;;;;;;;1615392;29;27940;-46
2022/01/26 11:15:17;;;;;;;5.15;4.85;;;;;;;;;;1619784;29;22220;-45
2022/01/26 11:16:14;;;;;;;5.22;4.93;;;;;;;;;;1626826;29;21672;-51
2022/01/26 11:17:07;;;;;;;5.10;4.80;;;;;;;;;;1615153;29;22257;-54
2022/01/26 11:18:19;;;;;;;4.93;4.72;;;;;;;;;;1610855;29;22331;-56
2022/01/26 11:19:15;;;;;;;4.32;4.13;;;;;;;;;;1618334;29;22190;-48
2022/01/26 11:20:19;;;;;;;4.40;4.20;;;;;;;;;;1614774;29;21889;-54
2022/01/26 11:21:16;;;;;;;4.60;4.22;;;;;;;;;;1615523;29;21919;-56
2022/01/26 11:22:10;;;;;;;4.80;4.50;;;;;;;;;;1616570;29;22477;-53
2022/01/26 11:23:06;;;;;;;5.13;4.82;;;;;;;;;;1601999;29;22385;-53
2022/01/26 11:24:08;;;;;;;4.70;4.40;;;;;;;;;;1612855;29;22512;-50
2022/01/26 11:25:11;;;;;;;4.78;4.40;;;;;;;;;;1601044;29;23051;-51
2022/01/26 11:26:04;;;;;;;4.47;4.18;;;;;;;;;;1593081;29;22977;-57
2022/01/26 11:27:05;;;;;;;4.03;3.83;;;;;;;;;;1609393;29;21976;-53
2022/01/26 11:27:59;;;;;;;4.28;4.07;;;;;;;;;;1602059;29;26914;-54
2022/01/26 11:28:52;;;;;;;4.72;4.43;;;;;;;;;;1599330;29;21711;-51
2022/01/26 11:29:48;;;;;;;4.72;4.43;;;;;;;;;;1606826;29;22397;-54
2022/01/26 11:30:41;;;;;;;4.40;4.20;;;;;;;;;;1616219;29;22297;-53
2022/01/26 11:31:36;;;;;;;5.07;4.78;;;;;;;;;;1610462;29;21994;-58
2022/01/26 11:32:34;;;;;;;4.65;4.45;;;;;;;;;;1607922;29;21753;-53
2022/01/26 11:33:30;;;;;;;4.35;4.15;;;;;;;;;;1592919;29;22269;-51
2022/01/26 11:34:26;;;;;;;4.90;4.60;;;;;;;;;;1606008;29;22077;-50
2022/01/26 11:35:25;;;;;;;4.45;4.25;;;;;;;;;;1608539;29;22445;-50
2022/01/26 11:36:22;;;;;;;4.85;4.57;;;;;;;;;;1603750;29;22665;-50
2022/01/26 11:37:17;;;;;;;4.72;4.53;;;;;;;;;;1601984;29;22364;-48
2022/01/26 11:45:44;;;;;;;4.30;4.10;;;;;;;;;;1590432;29;22128;-59
2022/01/26 11:46:39;;;;;;;4.40;4.10;;;;;;;;;;1603323;29;22873;-60
2022/01/26 11:47:34;;;;;;;4.50;4.20;;;;;;;;;;1593010;29;21852;-59
2022/01/26 11:48:27;;;;;;;4.55;4.22;;;;;;;;;;1595123;29;22760;-59
2022/01/26 11:49:25;;;;;;;4.97;4.57;;;;;;;;;;1599823;29;22480;-57
2022/01/26 11:50:22;;;;;;;4.47;4.05;;;;;;;;;;1619126;29;22397;-56
2022/01/26 11:51:14;;;;;;;4.72;4.43;;;;;;;;;;1602033;29;22106;-57
2022/01/26 11:52:21;;;;;;;4.32;4.10;;;;;;;;;;1603235;29;21896;-58
2022/01/26 11:53:25;;;;;;;4.90;4.47;;;;;;;;;;1587200;29;21857;-60
2022/01/26 11:54:21;;;;;;;4.55;4.25;;;;;;;;;;1597037;29;22314;-57
2022/01/26 11:55:28;;;;;;;5.07;4.78;;;;;;;;;;1617221;29;23655;-58
2022/01/26 11:56:23;;;;;;;5.60;5.20;;;;;;;;;;1612115;29;21671;-58
2022/01/26 11:57:18;;;;;;;4.90;4.60;;;;;;;;;;1605263;29;21787;-58
2022/01/26 11:58:18;;;;;;;5.10;4.80;;;;;;;;;;1594963;29;22820;-65
2022/01/26 11:59:19;;;;;;;5.13;4.93;;;;;;;;;;1601242;29;21668;-56
2022/01/26 12:00:19;;;;;;;4.93;4.63;;;;;;;;;;1610805;29;21896;-58
2022/01/26 12:01:18;;;;;;;5.13;4.93;;;;;;;;;;1598499;29;26346;-59
2022/01/26 12:02:33;;;;;;;5.45;5.07;;;;;;;;;;1600294;29;23277;-59
2022/01/26 12:03:31;;;;;;;5.40;5.10;;;;;;;;;;1572221;29;22623;-58
2022/01/26 12:04:25;;;;;;;5.38;5.10;;;;;;;;;;1591572;29;26782;-57
2022/01/26 12:05:22;;;;;;;4.97;4.75;;;;;;;;;;1584703;29;22863;-58
2022/01/26 12:06:27;;;;;;;5.57;5.28;;;;;;;;;;1582737;29;22342;-58
2022/01/26 12:07:22;;;;;;;5.10;4.80;;;;;;;;;;1609627;29;22397;-59
2022/01/26 12:08:16;;;;;;;5.10;4.80;;;;;;;;;;1593189;29;23794;-61
2022/01/26 12:09:10;;;;;;;4.95;4.65;;;;;;;;;;1590767;29;21662;-58
2022/01/26 12:10:04;;;;;;;4.88;4.57;;;;;;;;;;1594525;29;21731;-57
2022/01/26 12:10:58;;;;;;;4.55;4.35;;;;;;;;;;1602429;29;22642;-57
2022/01/26 12:11:53;;;;;;;4.80;4.60;;;;;;;;;;1601282;29;27028;-57
2022/01/26 12:12:46;;;;;;;5.30;5.00;;;;;;;;;;1589877;29;22485;-60
2022/01/26 12:13:40;;;;;;;4.90;4.70;;;;;;;;;;1589087;29;22477;-58
2022/01/26 12:14:34;;;;;;;4.70;4.50;;;;;;;;;;1601024;29;22577;-56
2022/01/26 12:15:30;;;;;;;4.78;4.57;;;;;;;;;;1600073;29;22206;-57
2022/01/26 12:16:24;;;;;;;4.68;4.47;;;;;;;;;;1602372;29;23211;-56
2022/01/26 12:17:27;;;;;;;4.88;4.68;;;;;;;;;;1607665;29;22526;-57
2022/01/26 12:18:29;;;;;;;4.80;4.50;;;;;;;;;;1609989;29;23160;-54
2022/01/26 12:19:32;;;;;;;4.82;4.63;;;;;;;;;;1610796;29;22945;-57
2022/01/26 12:32:17;;;;;;;4.88;4.57;;;;;;;;;;1592968;29;22915;-52
2022/01/26 12:34:40;;;;;;;4.60;4.40;;;;;;;;;;1587195;29;21972;-51
2022/01/26 12:35:46;;;;;;;5.80;4.43;;;;;;;;;;1608314;29;22630;-49
2022/01/26 12:36:53;;;;;;;4.63;4.43;;;;;;;;;;1612271;29;22329;-51
2022/01/26 12:37:56;;;;;;;5.35;4.88;;;;;;;;;;1600496;29;27681;-50
2022/01/26 12:38:59;;;;;;;4.63;4.28;;;;;;;;;;1581241;29;21827;-52
2022/01/26 12:41:21;;;;;;;5.10;4.80;;;;;;;;;;1602729;29;22479;-54
2022/01/26 12:42:26;;;;;;;5.05;4.75;;;;;;;;;;1581892;29;22291;-48
2022/01/26 12:43:36;;;;;;;4.53;4.32;;;;;;;;;;1571914;29;23050;-54
2022/01/26 12:44:28;;;;;;;4.78;4.57;;;;;;;;;;1587399;29;24718;-52
2022/01/26 12:45:27;;;;;;;5.68;5.28;;;;;;;;;;1592018;29;22562;-52
2022/01/26 12:46:22;;;;;;;4.20;3.90;;;;;;;;;;1592693;29;21817;-48
2022/01/26 12:47:15;;;;;;;4.70;4.40;;;;;;;;;;1593002;29;22063;-52
2022/01/26 12:48:11;;;;;;;4.93;4.63;;;;;;;;;;1597950;29;21960;-54
2022/01/26 12:49:10;;;;;;;4.55;4.35;;;;;;;;;;1601660;29;21868;-54
2022/01/26 12:50:02;;;;;;;5.25;4.60;;;;;;;;;;1602618;29;22289;-50
2022/01/26 12:50:56;;;;;;;4.68;4.38;;;;;;;;;;1598257;29;21669;-53
2022/01/26 12:51:51;;;;;;;4.55;4.35;;;;;;;;;;1603495;29;23361;-53
2022/01/26 12:52:47;;;;;;;4.15;3.75;;;;;;;;;;1595940;29;23267;-54
2022/01/26 12:53:41;;;;;;;4.30;3.95;;;;;;;;;;1590756;29;22015;-53
2022/01/26 12:54:33;;;;;;;4.03;3.83;;;;;;;;;;1596026;29;22025;-52
2022/01/26 12:55:28;;;;;;;4.10;3.80;;;;;;;;;;1578256;29;27092;-53
2022/01/26 12:56:25;;;;;;;4.13;3.92;;;;;;;;;;1570639;29;22421;-51
2022/01/26 12:57:18;;;;;;;3.78;3.58;;;;;;;;;;1607244;29;21712;-50
2022/01/26 12:58:11;;;;;;;3.53;3.33;;;;;;;;;;1614613;29;21949;-54
2022/01/26 12:59:06;;;;;;;3.38;3.28;;;;;;;;;;1626033;29;22385;-55
2022/01/26 13:00:06;;;;;;;3.70;3.22;;;;;;;;;;1617688;29;22750;-54
2022/01/26 13:01:05;;;;;;;3.65;3.45;;;;;;;;;;1610011;29;22720;-49
2022/01/26 13:01:57;;;;;;;3.35;3.15;;;;;;;;;;1623378;29;22690;-53
2022/01/26 13:02:51;;;;;;;3.90;3.00;;;;;;;;;;1619261;29;21856;-51
2022/01/26 13:03:49;;;;;;;3.33;3.22;;;;;;;;;;1604869;29;21994;-49
2022/01/26 13:04:41;;;;;;;3.63;3.42;;;;;;;;;;1605873;29;22468;-51
2022/01/26 13:05:35;;;;;;;3.65;3.33;;;;;;;;;;1597898;29;21997;-52
2022/01/26 13:06:31;;;;;;;4.10;3.80;;;;;;;;;;1593576;29;21986;-51
2022/01/26 13:07:22;;;;;;;3.70;3.50;;;;;;;;;;1592841;29;21832;-47
2022/01/26 13:08:15;;;;;;;3.88;3.67;;;;;;;;;;1616774;29;22026;-51
2022/01/26 13:09:16;;;;;;;4.45;4.25;;;;;;;;;;1604792;29;22595;-51
2022/01/26 13:10:19;;;;;;;3.97;3.78;;;;;;;;;;1614926;29;22126;-51
2022/01/26 13:11:13;;;;;;;3.90;3.70;;;;;;;;;;1588832;29;22087;-52
2022/01/26 13:12:06;;;;;;;4.22;3.92;;;;;;;;;;1589022;29;22463;-50
2022/01/26 13:13:15;;;;;;;4.05;3.85;;;;;;;;;;1583895;29;22077;-51
2022/01/26 13:14:16;;;;;;;4.22;3.92;;;;;;;;;;1608522;29;22278;-51
2022/01/26 13:15:17;;;;;;;4.22;3.83;;;;;;;;;;1604538;29;22723;-52
2022/01/26 13:16:25;;;;;;;4.18;3.97;;;;;;;;;;1594412;29;21800;-48
2022/01/26 13:17:32;;;;;;;3.83;3.47;;;;;;;;;;1599425;29;22850;-47
2022/01/26 13:18:57;;;;;;;3.95;3.75;;;;;;;;;;1595070;29;22507;-50
2022/01/26 13:20:03;;;;;;;3.97;3.65;;;;;;;;;;1605375;29;22977;-49
2022/01/26 13:21:16;;;;;;;4.43;4.13;;;;;;;;;;1589577;29;21855;-52
2022/01/26 13:23:36;;;;;;;4.20;4.00;;;;;;;;;;1594640;29;22270;-47
2022/01/26 13:25:52;;;;;;;4.20;4.00;;;;;;;;;;1610978;29;21801;-49
2022/01/26 13:27:01;;;;;;;4.30;4.10;;;;;;;;;;1605798;29;22081;-48
2022/01/26 13:28:15;;;;;;;3.90;3.60;;;;;;;;;;1599744;29;21846;-50
2022/01/26 13:29:31;;;;;;;4.65;4.35;;;;;;;;;;1592180;29;23091;-50
2022/01/26 13:30:39;;;;;;;4.10;3.90;;;;;;;;;;1608354;29;22828;-48
2022/01/26 13:33:09;;;;;;;4.45;4.15;;;;;;;;;;1604872;29;23258;-47
2022/01/26 13:35:37;;;;;;;4.03;3.83;;;;;;;;;;1597121;29;22121;-46
2022/01/26 13:36:50;;;;;;;3.60;3.40;;;;;;;;;;1587991;29;22646;-47
2022/01/26 13:38:02;;;;;;;3.72;3.53;;;;;;;;;;1590133;29;22176;-46
2022/01/26 13:39:12;;;;;;;3.42;3.33;;;;;;;;;;1596606;29;22386;-48
2022/01/26 13:40:23;;;;;;;4.05;3.85;;;;;;;;;;1601711;29;23096;-50
2022/01/26 13:41:31;;;;;;;3.67;3.47;;;;;;;;;;1608328;29;21720;-50
2022/01/26 13:43:02;;;;;;;3.72;3.53;;;;;;;;;;1595276;29;22292;-46
2022/01/26 13:49:06;;;;;;;3.72;3.53;;;;;;;;;;1594988;29;21802;-51
2022/01/26 13:50:22;;;;;;;3.45;3.25;;;;;;;;;;1586955;29;22425;-51
2022/01/26 13:51:21;;;;;;;3.60;3.40;;;;;;;;;;1598202;29;22258;-46
2022/01/26 13:52:31;;;;;;;3.55;3.35;;;;;;;;;;1618790;29;21906;-48
2022/01/26 13:53:35;;;;;;;3.83;3.63;;;;;;;;;;1607468;29;22345;-47
2022/01/26 13:56:04;;;;;;;3.80;3.60;;;;;;;;;;1597762;29;21848;-50
2022/01/26 13:57:10;;;;;;;3.78;3.58;;;;;;;;;;1610273;29;21958;-48
2022/01/26 13:59:18;;;;;;;3.75;3.55;;;;;;;;;;1615554;29;22761;-50
2022/01/26 14:00:17;;;;;;;3.53;3.33;;;;;;;;;;1603237;29;22204;-50
2022/01/26 14:01:19;;;;;;;3.58;3.38;;;;;;;;;;1602693;29;22518;-50
2022/01/26 14:02:11;;;;;;;3.55;3.35;;;;;;;;;;1591635;29;23269;-48
2022/01/26 14:03:07;;;;;;;3.88;3.67;;;;;;;;;;1614933;29;22209;-50
2022/01/26 14:04:04;;;;;;;4.50;3.78;;;;;;;;;;1607312;29;22069;-48
2022/01/26 14:04:57;;;;;;;4.00;3.80;;;;;;;;;;1600959;29;22297;-47
2022/01/26 14:05:50;;;;;;;3.92;3.72;;;;;;;;;;1594855;29;22602;-50
2022/01/26 14:06:44;;;;;;;3.72;3.53;;;;;;;;;;1599215;29;22787;-44
2022/01/26 14:07:39;;;;;;;3.75;3.55;;;;;;;;;;1606695;29;21975;-46
2022/01/26 14:08:31;;;;;;;4.00;3.80;;;;;;;;;;1608463;29;23056;-47
2022/01/26 14:09:25;;;;;;;3.70;3.50;;;;;;;;;;1606242;29;22225;-45
2022/01/26 14:10:20;;;;;;;4.53;4.13;;;;;;;;;;1613038;29;21850;-45
2022/01/26 14:11:13;;;;;;;5.65;5.05;;;;;;;;;;1613069;29;22295;-46
2022/01/26 14:12:11;;;;;;;5.05;4.60;;;;;;;;;;1610785;29;21678;-45
2022/01/26 14:13:05;;;;;;;5.78;5.38;;;;;;;;;;1610938;29;22035;-47
2022/01/26 14:14:00;;;;;;;9.00;5.13;;;;;;;;;;1594515;29;22188;-45
2022/01/26 14:14:55;;;;;;;5.47;5.13;;;;;;;;;;1612122;29;23095;-48
2022/01/26 14:15:55;;;;;;;5.45;5.05;;;;;;;;;;1617441;29;21966;-49
2022/01/26 14:16:56;;;;;;;5.47;5.15;;;;;;;;;;1613058;29;21953;-45
2022/01/26 14:18:03;;;;;;;5.53;5.13;;;;;;;;;;1617949;29;21875;-49
2022/01/26 14:19:15;;;;;;;5.50;5.10;;;;;;;;;;1615348;29;22197;-48
2022/01/26 14:20:19;;;;;;;5.18;4.88;;;;;;;;;;1613287;29;22301;-47
2022/01/26 14:22:48;;;;;;;5.88;4.15;;;;;;;;;;1602126;29;22603;-50
2022/01/26 14:23:57;;;;;;;5.88;4.32;;;;;;;;;;1611747;29;22143;-46
2022/01/26 14:25:13;;;;;;;5.50;4.60;;;;;;;;;;1604035;29;22360;-51
2022/01/26 14:26:09;;;;;;;4.82;4.43;;;;;;;;;;1607266;29;22009;-43
2022/01/26 14:27:04;;;;;;;4.68;4.38;;;;;;;;;;1610132;29;21731;-44
2022/01/26 14:28:05;;;;;;;6.20;4.82;;;;;;;;;;1594052;29;22347;-46
2022/01/26 14:28:59;;;;;;;5.47;4.78;;;;;;;;;;1609257;29;22343;-45
2022/01/26 14:30:01;;;;;;;5.20;4.80;;;;;;;;;;1609884;29;22375;-45
2022/01/26 14:31:08;;;;;;;7.25;4.72;;;;;;;;;;1613375;29;22175;-49
2022/01/26 14:32:34;;;;;;;5.40;4.90;;;;;;;;;;1604621;29;21918;-52
2022/01/26 14:40:02;;;;;;;4.53;4.15;;;;;;;;;;1608907;29;22174;-43
2022/01/26 14:41:04;;;;;;;;;;;;;;;;;;1599264;29;22296;-43
2022/01/26 14:52:08;;;;;;;4.57;4.18;;;;;;;;;;1606336;29;22319;-44
2022/01/26 14:53:55;;;;;;;4.82;4.53;;;;;;;;;;1619874;29;22266;-45
2022/01/26 14:56:12;;;;;;;5.13;4.45;;;;;;;;;;1584511;29;22506;-43
2022/01/26 15:01:02;;;;;;;4.22;3.92;;;;;;;;;;1615591;29;26862;-42
2022/01/26 15:30:36;;;;;;;2.58;2.45;;;;;;;;;;1620559;29;23566;-43
2022/01/26 15:34:06;;;;;;;3.15;2.85;;;;;;;;;;1617892;29;22225;-43
2022/01/26 15:35:04;;;;;;;3.90;2.58;;;;;;;;;;1629768;29;22788;-44
2022/01/26 15:40:56;;;;;;;2.65;2.45;;;;;;;;;;1618421;29;22304;-46
2022/01/26 15:44:27;;;;;;;7.18;2.55;;;;;;;;;;1612955;29;21867;-46
2022/01/26 15:50:11;;;;;;;2.85;2.65;;;;;;;;;;1613517;29;25943;-44
2022/01/26 15:51:09;;;;;;;3.15;2.50;;;;;;;;;;1636025;29;22521;-43
2022/01/26 15:52:12;;;;;;;2.63;2.42;;;;;;;;;;1628972;29;22735;-43
2022/01/26 15:53:10;;;;;;;2.80;2.63;;;;;;;;;;1628766;29;21710;-44
2022/01/26 15:57:54;;;;;;;2.55;2.35;;;;;;;;;;1628468;29;21547;-44
2022/01/26 15:59:03;;;;;;;3.10;2.90;;;;;;;;;;1633625;29;23635;-46
2022/01/26 16:05:01;;;;;;;3.30;3.10;;;;;;;;;;1634035;29;22548;-47
2022/01/26 16:06:17;;;;;;;3.45;3.22;;;;;;;;;;1641052;29;21680;-41
2022/01/26 16:07:15;;;;;;;3.83;3.60;;;;;;;;;;1643318;29;22001;-42
2022/01/26 16:08:13;;;;;;;3.88;3.63;;;;;;;;;;1641484;29;21751;-42
2022/01/26 16:12:43;;;;;;;3.50;3.30;;;;;;;;;;1635355;29;22165;-42
2022/01/26 16:17:36;;;;;;;3.65;3.45;;;;;;;;;;1630350;29;22759;-43
2022/01/26 16:21:13;;;;;;;6.22;3.03;;;;;;;;;;1649753;29;21900;-45
2022/01/26 16:27:44;;;;;;;2.95;2.75;;;;;;;;;;1634430;29;22170;-47
2022/01/26 16:36:16;;;;;;;2.28;2.17;;;;;;;;;;1629473;29;22029;-44
2022/01/26 16:38:34;;;;;;;2.35;2.25;;;;;;;;;;1633385;29;21742;-45
2022/01/26 16:53:06;;;;;;;2.45;2.20;;;;;;;;;;1645023;29;22993;-42
2022/01/26 17:11:08;;;;;;;2.28;2.15;;;;;;;;;;1637299;29;25597;-43
2022/01/26 18:16:00;;;;;;;1.50;1.40;;;;;;;;;;1637556;29;22183;-45
2022/01/26 18:17:00;;;;;;;1.70;1.60;;;;;;;;;;1657118;29;22186;-45
2022/01/26 18:18:00;;;;;;;1.85;1.75;;;;;;;;;;1652512;29;22256;-44
